createdAt,value
2017-11-14T00:00:55.350Z,78.30
2017-11-14T00:03:22.883Z,78.50
2017-11-14T00:05:50.401Z,78.40
2017-11-14T00:08:17.908Z,78.50
2017-11-14T00:10:46.166Z,78.70
2017-11-14T00:13:13.784Z,78.60
2017-11-14T00:15:41.296Z,78.40
2017-11-14T00:18:09.580Z,78.50
2017-11-14T00:20:37.264Z,78.40
2017-11-14T00:23:04.779Z,78.40
2017-11-14T00:25:32.271Z,78.70
2017-11-14T00:27:59.746Z,78.80
2017-11-14T00:30:27.256Z,79.00
2017-11-14T00:32:54.750Z,79.20
2017-11-14T00:35:22.247Z,79.20
2017-11-14T00:37:49.865Z,79.30
2017-11-14T00:40:18.105Z,79.70
2017-11-14T00:42:45.601Z,79.70
2017-11-14T00:45:13.100Z,79.80
2017-11-14T00:47:40.602Z,79.90
2017-11-14T00:50:08.848Z,80.10
2017-11-14T00:52:36.355Z,80.00
2017-11-14T00:55:03.943Z,80.30
2017-11-14T00:57:31.440Z,80.30
2017-11-14T00:59:58.934Z,80.00
2017-11-14T01:02:26.579Z,79.50
2017-11-14T01:04:54.822Z,78.80
2017-11-14T01:07:22.312Z,78.80
2017-11-14T01:09:50.707Z,78.50
2017-11-14T01:12:18.388Z,78.50
2017-11-14T01:14:45.909Z,78.50
2017-11-14T01:17:13.411Z,78.70
2017-11-14T01:19:40.894Z,79.20
2017-11-14T01:22:08.402Z,79.50
2017-11-14T01:24:35.910Z,79.70
2017-11-14T01:27:03.424Z,79.90
2017-11-14T01:29:30.922Z,80.10
2017-11-14T01:31:58.439Z,80.20
2017-11-14T01:34:25.935Z,80.30
2017-11-14T01:36:53.453Z,80.30
2017-11-14T01:39:21.017Z,80.40
2017-11-14T01:41:49.272Z,80.40
2017-11-14T01:44:16.784Z,80.30
2017-11-14T01:46:44.273Z,80.40
2017-11-14T01:49:11.903Z,80.40
2017-11-14T01:51:39.418Z,80.60
2017-11-14T01:54:07.696Z,79.50
2017-11-14T01:56:35.943Z,79.00
2017-11-14T01:59:03.422Z,78.90
2017-11-14T02:01:31.678Z,78.10
2017-11-14T02:03:59.198Z,78.10
2017-11-14T02:06:26.833Z,77.90
2017-11-14T02:08:55.094Z,77.80
2017-11-14T02:11:22.603Z,77.70
2017-11-14T02:13:50.089Z,77.60
2017-11-14T02:16:17.587Z,77.60
2017-11-14T02:18:45.100Z,77.60
2017-11-14T02:21:12.617Z,77.70
2017-11-14T02:23:40.092Z,77.70
2017-11-14T02:26:07.631Z,77.80
2017-11-14T02:28:35.101Z,78.20
2017-11-14T02:31:02.594Z,78.90
2017-11-14T02:33:30.080Z,78.30
2017-11-14T02:35:58.356Z,78.30
2017-11-14T02:38:26.046Z,78.30
2017-11-14T02:40:53.565Z,78.40
2017-11-14T02:43:21.051Z,78.50
2017-11-14T02:45:49.453Z,78.90
2017-11-14T02:48:16.962Z,78.80
2017-11-14T02:50:44.582Z,79.00
2017-11-14T02:53:12.180Z,78.90
2017-11-14T02:55:39.665Z,78.60
2017-11-14T02:58:07.198Z,78.80
2017-11-14T03:00:34.727Z,78.90
2017-11-14T03:03:02.346Z,78.90
2017-11-14T03:05:30.113Z,78.90
2017-11-14T03:07:58.501Z,79.00
2017-11-14T03:10:26.820Z,78.90
2017-11-14T03:12:54.340Z,79.00
2017-11-14T03:15:22.602Z,79.10
2017-11-14T03:17:50.869Z,79.20
2017-11-14T03:20:19.270Z,79.30
2017-11-14T03:22:46.933Z,79.30
2017-11-14T03:25:14.493Z,79.50
2017-11-14T03:27:42.752Z,79.50
2017-11-14T03:30:11.027Z,79.60
2017-11-14T03:32:38.543Z,79.50
2017-11-14T03:35:06.058Z,79.50
2017-11-14T03:37:33.566Z,79.50
2017-11-14T03:40:01.066Z,79.60
2017-11-14T03:42:28.605Z,79.70
2017-11-14T03:44:56.086Z,79.60
2017-11-14T03:47:24.369Z,80.00
2017-11-14T03:49:52.637Z,80.30
2017-11-14T03:52:20.140Z,80.30
2017-11-14T03:54:47.649Z,80.30
2017-11-14T03:57:15.150Z,80.50
2017-11-14T03:59:42.682Z,80.60
2017-11-14T04:02:10.190Z,80.60
2017-11-14T04:04:37.705Z,80.70
2017-11-14T04:07:05.210Z,80.80
2017-11-14T04:09:32.697Z,81.00
2017-11-14T04:12:00.974Z,81.20
2017-11-14T04:14:28.594Z,81.20
2017-11-14T04:16:56.351Z,81.30
2017-11-14T04:19:23.821Z,81.40
2017-11-14T04:21:51.308Z,81.40
2017-11-14T04:24:18.956Z,81.40
2017-11-14T04:26:46.480Z,81.50
2017-11-14T04:29:13.968Z,81.70
2017-11-14T04:31:41.459Z,81.50
2017-11-14T04:34:09.226Z,80.80
2017-11-14T04:36:36.811Z,81.10
2017-11-14T04:39:05.061Z,80.30
2017-11-14T04:41:32.613Z,80.30
2017-11-14T04:44:00.198Z,80.30
2017-11-14T04:46:27.685Z,80.40
2017-11-14T04:48:55.202Z,80.60
2017-11-14T04:51:22.702Z,80.70
2017-11-14T04:53:50.786Z,80.60
2017-11-14T04:56:18.281Z,80.70
2017-11-14T04:58:45.804Z,80.50
2017-11-14T05:01:13.298Z,80.30
2017-11-14T05:03:40.798Z,79.70
2017-11-14T05:06:08.290Z,79.50
2017-11-14T05:08:36.170Z,79.60
2017-11-14T05:11:03.653Z,79.40
2017-11-14T05:13:31.246Z,79.50
2017-11-14T05:15:58.747Z,79.70
2017-11-14T05:18:27.749Z,79.60
2017-11-14T05:20:55.473Z,79.60
2017-11-14T05:23:22.961Z,79.70
2017-11-14T05:25:50.533Z,79.60
2017-11-14T05:28:18.105Z,79.60
2017-11-14T05:30:46.381Z,79.60
2017-11-14T05:33:14.045Z,79.50
2017-11-14T05:35:41.585Z,79.50
2017-11-14T05:38:09.889Z,79.50
2017-11-14T05:40:37.464Z,79.50
2017-11-14T05:43:05.840Z,80.10
2017-11-14T05:45:33.342Z,80.10
2017-11-14T05:48:00.860Z,80.40
2017-11-14T05:50:29.674Z,80.30
2017-11-14T05:52:57.162Z,80.30
2017-11-14T05:55:24.671Z,80.30
2017-11-14T05:57:52.178Z,80.40
2017-11-14T06:00:19.667Z,80.20
2017-11-14T06:02:48.058Z,80.30
2017-11-14T06:05:15.725Z,80.30
2017-11-14T06:07:43.417Z,80.10
2017-11-14T06:10:10.902Z,79.90
2017-11-14T06:12:38.379Z,79.50
2017-11-14T06:15:05.916Z,79.40
2017-11-14T06:17:34.095Z,79.30
2017-11-14T06:20:01.794Z,79.20
2017-11-14T06:22:30.042Z,78.90
2017-11-14T06:24:57.684Z,78.90
2017-11-14T06:27:25.160Z,78.80
2017-11-14T06:29:52.690Z,78.90
2017-11-14T06:32:20.173Z,78.90
2017-11-14T06:34:47.710Z,78.90
2017-11-14T06:37:15.210Z,79.00
2017-11-14T06:39:42.721Z,79.10
2017-11-14T06:42:10.272Z,79.10
2017-11-14T06:44:37.773Z,79.10
2017-11-14T06:47:05.335Z,78.70
2017-11-14T06:49:34.326Z,78.30
2017-11-14T06:52:01.892Z,78.20
2017-11-14T06:54:29.513Z,78.00
2017-11-14T06:56:57.042Z,77.80
2017-11-14T06:59:24.565Z,77.30
2017-11-14T07:01:52.154Z,77.70
2017-11-14T07:04:19.733Z,77.30
2017-11-14T07:06:47.235Z,77.50
2017-11-14T07:09:14.750Z,77.00
2017-11-14T07:11:42.432Z,76.70
2017-11-14T07:14:09.929Z,76.80
2017-11-14T07:16:37.402Z,76.70
2017-11-14T07:19:04.909Z,76.90
2017-11-14T07:21:32.401Z,76.60
2017-11-14T07:23:59.961Z,76.40
2017-11-14T07:26:27.618Z,76.30
2017-11-14T07:28:55.347Z,76.10
2017-11-14T07:31:22.865Z,75.90
2017-11-14T07:33:50.445Z,75.60
2017-11-14T07:36:18.830Z,76.10
2017-11-14T07:38:46.336Z,76.00
2017-11-14T07:41:13.832Z,76.20
2017-11-14T07:43:42.133Z,76.00
2017-11-14T07:46:09.627Z,76.00
2017-11-14T07:48:37.134Z,76.50
2017-11-14T07:51:04.811Z,77.00
2017-11-14T07:53:32.355Z,76.90
2017-11-14T07:56:00.037Z,77.20
2017-11-14T07:58:27.540Z,77.30
2017-11-14T08:00:55.174Z,77.10
2017-11-14T08:03:22.651Z,77.40
2017-11-14T08:05:50.159Z,77.90
2017-11-14T08:08:17.673Z,77.80
2017-11-14T08:10:45.185Z,77.80
2017-11-14T08:13:12.837Z,77.80
2017-11-14T08:15:40.358Z,77.90
2017-11-14T08:18:07.855Z,77.90
2017-11-14T08:20:35.354Z,77.40
2017-11-14T08:23:02.835Z,77.20
2017-11-14T08:25:30.463Z,77.20
2017-11-14T08:27:57.993Z,76.50
2017-11-14T08:30:26.266Z,75.70
2017-11-14T08:32:54.529Z,76.00
2017-11-14T08:35:22.114Z,76.00
2017-11-14T08:37:49.613Z,76.20
2017-11-14T08:40:17.260Z,75.80
2017-11-14T08:42:44.745Z,75.80
2017-11-14T08:45:12.242Z,75.60
2017-11-14T08:47:40.631Z,74.60
2017-11-14T08:50:08.134Z,74.60
2017-11-14T08:52:35.759Z,74.50
2017-11-14T08:55:03.316Z,74.30
2017-11-14T08:57:30.861Z,74.20
2017-11-14T08:59:59.341Z,73.40
2017-11-14T09:02:27.724Z,72.90
2017-11-14T09:04:56.005Z,73.00
2017-11-14T09:07:23.517Z,72.90
2017-11-14T09:09:51.006Z,72.60
2017-11-14T09:12:19.291Z,72.80
2017-11-14T09:14:47.557Z,72.50
2017-11-14T09:17:15.829Z,72.00
2017-11-14T09:19:44.241Z,72.00
2017-11-14T09:22:11.919Z,72.00
2017-11-14T09:24:39.399Z,71.70
2017-11-14T09:27:06.903Z,71.50
2017-11-14T09:29:35.230Z,71.60
2017-11-14T09:32:03.085Z,71.50
2017-11-14T09:34:30.563Z,72.00
2017-11-14T09:36:58.053Z,72.00
2017-11-14T09:39:25.569Z,71.50
2017-11-14T09:41:53.045Z,71.30
2017-11-14T09:44:20.529Z,71.20
2017-11-14T09:46:48.781Z,70.50
2017-11-14T09:49:16.287Z,70.50
2017-11-14T09:51:43.765Z,70.60
2017-11-14T09:54:11.291Z,70.70
2017-11-14T09:56:39.551Z,70.60
2017-11-14T09:59:07.117Z,70.60
2017-11-14T10:01:34.625Z,70.30
2017-11-14T10:04:02.147Z,70.20
2017-11-14T10:06:30.405Z,70.90
2017-11-14T10:08:57.923Z,71.50
2017-11-14T10:11:25.450Z,70.90
2017-11-14T10:13:52.977Z,71.30
2017-11-14T10:16:20.475Z,71.10
2017-11-14T10:18:47.982Z,71.20
2017-11-14T10:21:15.496Z,71.10
2017-11-14T10:23:43.021Z,70.50
2017-11-14T10:26:10.619Z,70.20
2017-11-14T10:28:38.111Z,69.90
2017-11-14T10:31:05.681Z,68.90
2017-11-14T10:33:33.154Z,68.40
2017-11-14T10:36:00.652Z,67.90
2017-11-14T10:38:28.150Z,67.70
2017-11-14T10:40:55.641Z,67.90
2017-11-14T10:43:23.955Z,67.60
2017-11-14T10:45:51.458Z,68.10
2017-11-14T10:48:18.945Z,68.40
2017-11-14T10:50:46.460Z,68.70
2017-11-14T10:53:13.947Z,69.20
2017-11-14T10:55:41.442Z,69.60
2017-11-14T10:58:08.925Z,69.90
2017-11-14T11:00:40.252Z,70.20
2017-11-14T11:03:07.756Z,70.40
2017-11-14T11:05:35.464Z,70.30
2017-11-14T11:08:02.946Z,69.80
2017-11-14T11:10:30.500Z,70.00
2017-11-14T11:12:57.983Z,69.90
2017-11-14T11:15:25.468Z,70.10
2017-11-14T11:17:52.979Z,70.10
2017-11-14T11:20:20.458Z,70.30
2017-11-14T11:22:48.171Z,69.70
2017-11-14T11:25:16.456Z,69.50
2017-11-14T11:27:43.959Z,69.50
2017-11-14T11:30:11.671Z,69.50
2017-11-14T11:32:39.193Z,69.30
2017-11-14T11:35:06.733Z,69.80
2017-11-14T11:37:34.387Z,68.70
2017-11-14T11:40:01.950Z,68.80
2017-11-14T11:42:29.483Z,69.00
2017-11-14T11:44:57.890Z,69.00
2017-11-14T11:47:40.295Z,69.60
2017-11-14T11:50:07.796Z,69.00
2017-11-14T11:52:35.364Z,69.20
2017-11-14T11:55:02.919Z,69.00
2017-11-14T11:57:31.352Z,70.00
2017-11-14T11:59:58.908Z,69.40
2017-11-14T12:02:26.474Z,69.90
2017-11-14T12:04:53.954Z,70.00
2017-11-14T12:07:21.488Z,70.10
2017-11-14T12:09:49.198Z,69.90
2017-11-14T12:12:16.737Z,69.60
2017-11-14T12:14:44.230Z,69.70
2017-11-14T12:17:11.746Z,69.50
2017-11-14T12:19:39.280Z,69.20
2017-11-14T12:22:06.840Z,69.40
2017-11-14T12:24:34.371Z,69.70
2017-11-14T12:27:02.783Z,69.70
2017-11-14T12:29:30.446Z,69.50
2017-11-14T12:31:57.949Z,69.70
2017-11-14T12:34:26.959Z,69.50
2017-11-14T12:36:55.938Z,69.70
2017-11-14T12:39:23.449Z,69.70
2017-11-14T12:41:50.974Z,69.80
2017-11-14T12:44:19.258Z,69.80
2017-11-14T12:46:46.746Z,69.80
2017-11-14T12:49:14.389Z,69.70
2017-11-14T12:51:41.950Z,69.40
2017-11-14T12:54:09.638Z,69.10
2017-11-14T12:56:37.276Z,68.90
2017-11-14T12:59:04.773Z,68.90
2017-11-14T13:01:32.325Z,68.50
2017-11-14T13:03:59.809Z,68.60
2017-11-14T13:06:27.307Z,68.70
2017-11-14T13:08:54.803Z,68.70
2017-11-14T13:11:22.303Z,68.40
2017-11-14T13:13:50.560Z,68.30
2017-11-14T13:16:18.063Z,68.90
2017-11-14T13:18:45.619Z,68.60
2017-11-14T13:21:13.117Z,68.60
2017-11-14T13:23:40.606Z,69.00
2017-11-14T13:26:08.121Z,69.40
2017-11-14T13:28:35.640Z,70.00
2017-11-14T13:31:03.139Z,70.30
2017-11-14T13:33:30.644Z,70.70
2017-11-14T13:35:59.044Z,71.50
2017-11-14T13:38:26.510Z,70.80
2017-11-14T13:40:54.042Z,71.00
2017-11-14T13:43:21.643Z,71.50
2017-11-14T13:45:49.269Z,71.80
2017-11-14T13:48:16.862Z,71.80
2017-11-14T13:50:44.432Z,72.00
2017-11-14T13:53:12.095Z,72.10
2017-11-14T13:55:39.756Z,72.20
2017-11-14T13:58:07.408Z,72.30
2017-11-14T14:00:34.990Z,72.60
2017-11-14T14:03:02.493Z,72.90
2017-11-14T14:05:29.982Z,73.10
2017-11-14T14:07:57.473Z,72.60
2017-11-14T14:10:24.970Z,71.90
2017-11-14T14:12:53.262Z,71.00
2017-11-14T14:15:21.528Z,70.20
2017-11-14T14:17:49.898Z,69.40
2017-11-14T14:20:18.186Z,68.60
2017-11-14T14:22:45.696Z,68.60
2017-11-14T14:25:13.189Z,67.80
2017-11-14T14:27:41.586Z,66.60
2017-11-14T14:30:09.883Z,66.00
2017-11-14T14:32:37.371Z,66.00
2017-11-14T14:35:05.103Z,65.50
2017-11-14T14:37:32.578Z,65.80
2017-11-14T14:40:00.077Z,64.80
2017-11-14T14:42:27.745Z,64.80
2017-11-14T14:44:55.473Z,64.80
2017-11-14T14:47:22.959Z,65.80
2017-11-14T14:49:50.566Z,65.70
2017-11-14T14:52:18.061Z,65.60
2017-11-14T14:54:45.560Z,66.00
2017-11-14T14:57:13.829Z,65.80
2017-11-14T14:59:41.316Z,65.80
2017-11-14T15:02:08.803Z,66.00
2017-11-14T15:04:36.296Z,65.80
2017-11-14T15:07:03.836Z,65.40
2017-11-14T15:09:31.320Z,65.30
2017-11-14T15:11:58.836Z,65.10
2017-11-14T15:14:26.322Z,65.30
2017-11-14T15:16:53.821Z,65.50
2017-11-14T15:19:22.090Z,65.30
2017-11-14T15:21:49.800Z,65.30
2017-11-14T15:24:17.326Z,65.60
2017-11-14T15:26:46.538Z,65.50
2017-11-14T15:29:14.021Z,65.50
2017-11-14T15:31:41.943Z,65.40
2017-11-14T15:34:09.464Z,65.40
2017-11-14T15:36:36.965Z,65.50
2017-11-14T15:39:04.582Z,65.40
2017-11-14T15:41:32.103Z,65.20
2017-11-14T15:43:59.804Z,65.10
2017-11-14T15:46:27.321Z,65.30
2017-11-14T15:48:54.804Z,65.20
2017-11-14T15:51:22.308Z,65.20
2017-11-14T15:53:50.565Z,65.20
2017-11-14T15:56:18.826Z,65.30
2017-11-14T15:58:46.324Z,65.40
2017-11-14T16:01:14.742Z,65.90
2017-11-14T16:03:42.373Z,65.90
2017-11-14T16:06:10.049Z,65.90
2017-11-14T16:08:37.598Z,66.10
2017-11-14T16:11:05.872Z,67.00
2017-11-14T16:13:33.410Z,67.00
2017-11-14T16:16:01.707Z,67.00
2017-11-14T16:18:29.976Z,66.70
2017-11-14T16:20:58.460Z,66.70
2017-11-14T16:23:25.992Z,66.70
2017-11-14T16:25:53.599Z,67.00
2017-11-14T16:28:21.105Z,67.60
2017-11-14T16:30:48.609Z,68.10
2017-11-14T16:33:16.115Z,68.20
2017-11-14T16:35:43.637Z,68.70
2017-11-14T16:38:11.177Z,68.60
2017-11-14T16:40:38.878Z,68.00
2017-11-14T16:43:06.399Z,68.10
2017-11-14T16:45:34.672Z,68.00
2017-11-14T16:48:02.909Z,67.50
2017-11-14T16:50:30.413Z,67.50
2017-11-14T16:52:58.693Z,67.20
2017-11-14T16:55:27.032Z,66.70
2017-11-14T16:57:54.513Z,66.70
2017-11-14T17:00:22.014Z,66.80
2017-11-14T17:02:49.800Z,66.50
2017-11-14T17:05:17.302Z,66.70
2017-11-14T17:07:45.757Z,66.60
2017-11-14T17:10:13.278Z,66.60
2017-11-14T17:12:40.778Z,66.50
2017-11-14T17:15:08.510Z,66.70
2017-11-14T17:17:36.131Z,66.60
2017-11-14T17:20:03.656Z,66.10
2017-11-14T17:22:31.290Z,66.30
2017-11-14T17:24:58.783Z,66.20
2017-11-14T17:27:26.302Z,66.20
2017-11-14T17:29:53.853Z,66.00
2017-11-14T17:32:21.507Z,66.20
2017-11-14T17:34:49.015Z,66.30
2017-11-14T17:37:16.650Z,66.00
2017-11-14T17:39:44.303Z,66.10
2017-11-14T17:42:11.767Z,66.10
2017-11-14T17:44:39.394Z,65.50
2017-11-14T17:47:06.890Z,65.50
2017-11-14T17:49:34.389Z,65.20
2017-11-14T17:52:01.896Z,65.40
2017-11-14T17:54:29.443Z,65.60
2017-11-14T17:56:57.154Z,65.50
2017-11-14T17:59:24.690Z,65.20
2017-11-14T18:01:52.401Z,65.50
2017-11-14T18:04:19.899Z,65.50
2017-11-14T18:06:47.382Z,66.10
2017-11-14T18:09:14.905Z,66.70
2017-11-14T18:11:43.987Z,67.10
2017-11-14T18:14:12.271Z,68.10
2017-11-14T18:16:40.553Z,68.40
2017-11-14T18:19:08.053Z,68.40
2017-11-14T18:21:35.770Z,68.70
2017-11-14T18:24:03.427Z,69.10
2017-11-14T18:26:30.930Z,69.40
2017-11-14T18:28:58.551Z,70.00
2017-11-14T18:31:26.803Z,69.80
2017-11-14T18:33:54.322Z,69.80
2017-11-14T18:36:21.881Z,69.90
2017-11-14T18:38:49.404Z,69.90
2017-11-14T18:41:17.676Z,70.00
2017-11-14T18:43:45.931Z,71.00
2017-11-14T18:46:13.413Z,70.90
2017-11-14T18:48:41.815Z,72.40
2017-11-14T18:51:09.596Z,72.40
2017-11-14T18:53:37.221Z,72.50
2017-11-14T18:56:04.890Z,72.50
2017-11-14T18:58:33.256Z,71.80
2017-11-14T19:01:01.044Z,71.80
2017-11-14T19:03:28.574Z,71.60
2017-11-14T19:05:57.023Z,71.20
2017-11-14T19:08:24.634Z,71.10
2017-11-14T19:10:52.170Z,71.00
2017-11-14T19:13:19.647Z,71.00
2017-11-14T19:15:47.930Z,71.00
2017-11-14T19:18:16.292Z,71.00
2017-11-14T19:20:43.793Z,71.00
2017-11-14T19:23:11.317Z,70.90
2017-11-14T19:25:39.591Z,70.80
2017-11-14T19:28:07.858Z,71.00
2017-11-14T19:30:36.153Z,71.00
2017-11-14T19:33:04.413Z,70.90
2017-11-14T19:35:32.810Z,71.00
2017-11-14T19:38:01.061Z,71.10
2017-11-14T19:40:28.582Z,71.10
2017-11-14T19:42:56.090Z,71.00
2017-11-14T19:45:23.578Z,70.90
2017-11-14T19:47:51.443Z,70.80
2017-11-14T19:50:18.976Z,71.00
2017-11-14T19:52:46.495Z,70.80
2017-11-14T19:55:13.993Z,70.90
2017-11-14T19:57:41.533Z,70.90
2017-11-14T20:00:09.810Z,70.90
2017-11-14T20:02:37.308Z,70.90
2017-11-14T20:05:04.784Z,70.80
2017-11-14T20:07:32.391Z,70.90
2017-11-14T20:10:01.386Z,71.20
2017-11-14T20:12:29.176Z,71.20
2017-11-14T20:14:56.661Z,71.30
2017-11-14T20:17:24.183Z,71.50
2017-11-14T20:19:51.689Z,71.70
2017-11-14T20:22:19.184Z,71.50
2017-11-14T20:24:46.690Z,71.70
2017-11-14T20:27:14.195Z,71.60
2017-11-14T20:29:41.683Z,71.60
2017-11-14T20:32:09.949Z,71.70
2017-11-14T20:34:37.554Z,71.70
2017-11-14T20:37:05.047Z,71.70
2017-11-14T20:39:32.646Z,71.90
2017-11-14T20:42:00.954Z,72.20
2017-11-14T20:44:28.446Z,72.90
2017-11-14T20:46:55.945Z,72.30
2017-11-14T20:49:23.479Z,72.50
2017-11-14T20:51:51.088Z,72.70
2017-11-14T20:54:19.383Z,72.80
2017-11-14T20:56:46.912Z,72.80
2017-11-14T20:59:14.387Z,72.90
2017-11-14T21:01:41.948Z,73.00
2017-11-14T21:04:09.503Z,73.10
2017-11-14T21:06:36.996Z,73.10
2017-11-14T21:09:04.475Z,73.20
2017-11-14T21:11:32.070Z,73.50
2017-11-14T21:13:59.549Z,73.60
2017-11-14T21:16:27.173Z,73.70
2017-11-14T21:18:54.672Z,73.70
2017-11-14T21:21:22.285Z,73.60
2017-11-14T21:23:49.763Z,73.50
2017-11-14T21:26:17.252Z,73.70
2017-11-14T21:28:44.741Z,74.30
2017-11-14T21:31:12.235Z,73.80
2017-11-14T21:33:39.750Z,73.70
2017-11-14T21:36:07.251Z,73.80
2017-11-14T21:38:34.758Z,73.80
2017-11-14T21:41:02.570Z,74.00
2017-11-14T21:43:30.062Z,73.90
2017-11-14T21:45:57.541Z,74.00
2017-11-14T21:48:25.155Z,74.20
2017-11-14T21:50:52.682Z,74.20
2017-11-14T21:53:20.333Z,74.40
2017-11-14T21:55:47.926Z,74.40
2017-11-14T21:58:15.420Z,74.40
2017-11-14T22:00:42.922Z,74.40
2017-11-14T22:03:11.913Z,75.20
2017-11-14T22:05:39.428Z,74.50
2017-11-14T22:08:06.910Z,74.70
2017-11-14T22:10:34.411Z,74.90
2017-11-14T22:13:02.662Z,75.00
2017-11-14T22:15:30.144Z,75.00
2017-11-14T22:17:57.644Z,75.20
2017-11-14T22:20:25.145Z,75.00
2017-11-14T22:22:52.625Z,75.00
2017-11-14T22:25:20.872Z,75.20
2017-11-14T22:27:48.403Z,75.20
2017-11-14T22:30:15.914Z,75.40
2017-11-14T22:32:44.299Z,75.60
2017-11-14T22:35:11.805Z,75.60
2017-11-14T22:37:40.437Z,75.30
2017-11-14T22:40:08.692Z,75.60
2017-11-14T22:42:36.194Z,75.50
2017-11-14T22:45:03.853Z,75.70
2017-11-14T22:47:31.361Z,75.90
2017-11-14T22:49:58.887Z,75.80
2017-11-14T22:52:27.350Z,75.60
2017-11-14T22:54:54.912Z,75.70
2017-11-14T22:57:22.558Z,75.50
2017-11-14T22:59:50.813Z,75.40
2017-11-14T23:02:18.298Z,75.40
2017-11-14T23:04:45.768Z,75.30
2017-11-14T23:07:13.274Z,75.40
2017-11-14T23:09:40.991Z,75.40
2017-11-14T23:12:08.486Z,75.40
2017-11-14T23:14:36.001Z,75.60
2017-11-14T23:17:03.670Z,75.50
2017-11-14T23:19:31.351Z,76.40
2017-11-14T23:21:58.969Z,75.80
2017-11-14T23:24:27.358Z,75.80
2017-11-14T23:26:55.869Z,75.80
2017-11-14T23:29:23.362Z,75.70
2017-11-14T23:31:50.879Z,75.80
2017-11-14T23:34:18.561Z,75.70
2017-11-14T23:36:46.040Z,75.70
2017-11-14T23:39:13.737Z,75.70
2017-11-14T23:41:41.209Z,75.70
2017-11-14T23:44:08.706Z,75.70
2017-11-14T23:46:36.177Z,75.80
2017-11-14T23:49:03.776Z,75.70
2017-11-14T23:51:31.277Z,75.40
2017-11-14T23:53:58.763Z,75.40
2017-11-14T23:56:26.565Z,75.40
2017-11-14T23:58:54.946Z,75.30
